Time;durP1;ratioP1;P1;durP2;ratioP2;P2;SDS_P1;SDS_P2;PMS_P1;PMS_P2;Temp;Humidity;BMP_temperature;BMP_pressure;BME280_temperature;BME280_humidity;BME280_pressure;Samples;Min_cycle;Max_cycle;Signal;HPM_P1;HPM_P2
2021/12/03 00:02:50;;;;;;;36.22;15.55;;;-0.70;99.90;;;;;;12448575;28;20066;-38
2021/12/03 00:08:53;;;;;;;39.92;16.55;;;-0.70;99.90;;;;;;12452925;28;20410;-38
2021/12/03 00:14:55;;;;;;;36.25;16.58;;;-0.60;99.90;;;;;;12446900;28;20052;-37
2021/12/03 00:21:00;;;;;;;45.50;17.90;;;-0.60;99.90;;;;;;12474655;28;20124;-38
2021/12/03 00:27:04;;;;;;;38.97;17.45;;;-0.60;99.90;;;;;;12496583;28;20052;-37
2021/12/03 00:33:08;;;;;;;36.77;15.13;;;-0.50;99.90;;;;;;12494591;28;20049;-38
2021/12/03 00:39:10;;;;;;;45.27;17.73;;;-0.50;99.90;;;;;;12496451;28;20097;-38
2021/12/03 00:45:13;;;;;;;45.20;18.13;;;-0.40;99.90;;;;;;12498566;28;20306;-38
2021/12/03 00:51:18;;;;;;;51.55;18.42;;;-0.50;99.90;;;;;;12497295;28;20049;-38
2021/12/03 00:57:20;;;;;;;49.55;19.48;;;-0.50;99.90;;;;;;12494533;28;20056;-39
2021/12/03 01:03:22;;;;;;;52.58;19.90;;;-0.50;99.90;;;;;;12496689;28;20045;-37
2021/12/03 01:09:24;;;;;;;48.85;20.65;;;-0.40;99.90;;;;;;12497068;28;20054;-37
2021/12/03 01:15:29;;;;;;;49.35;20.48;;;-0.30;99.90;;;;;;12506301;28;20045;-39
2021/12/03 01:21:37;;;;;;;50.58;21.30;;;-0.30;99.90;;;;;;12505519;28;20053;-38
2021/12/03 01:27:39;;;;;;;49.07;21.17;;;-0.30;99.90;;;;;;12507802;28;20105;-39
2021/12/03 01:33:43;;;;;;;52.28;23.58;;;-0.10;99.90;;;;;;12507377;28;20048;-38
2021/12/03 01:39:44;;;;;;;53.85;24.23;;;0.00;99.90;;;;;;12510195;28;20896;-38
2021/12/03 01:45:47;;;;;;;56.55;23.92;;;0.00;99.90;;;;;;12518977;28;20053;-37
2021/12/03 01:51:50;;;;;;;52.42;23.85;;;0.10;99.90;;;;;;12507406;28;20095;-39
2021/12/03 01:57:52;;;;;;;57.50;24.95;;;0.10;99.90;;;;;;12508015;28;20068;-38
2021/12/03 02:03:56;;;;;;;61.70;25.90;;;0.10;99.90;;;;;;12505333;28;20402;-37
2021/12/03 02:09:59;;;;;;;53.85;26.33;;;0.10;99.90;;;;;;12510290;28;20425;-39
2021/12/03 02:16:04;;;;;;;58.67;26.02;;;0.10;99.90;;;;;;12505944;28;20061;-38
2021/12/03 02:22:07;;;;;;;62.22;26.17;;;0.10;99.90;;;;;;12503401;28;20531;-37
2021/12/03 02:28:10;;;;;;;65.95;28.80;;;0.10;99.90;;;;;;12506148;28;20049;-39
2021/12/03 02:34:12;;;;;;;58.72;27.45;;;0.10;99.90;;;;;;12489328;28;20052;-37
2021/12/03 02:40:15;;;;;;;58.28;26.83;;;0.10;99.90;;;;;;12491527;28;20460;-37
2021/12/03 02:46:19;;;;;;;55.58;25.23;;;0.10;99.90;;;;;;12502994;28;20049;-38
2021/12/03 02:52:23;;;;;;;;;;;0.10;99.90;;;;;;12507547;28;20054;-37
2021/12/03 02:58:25;;;;;;;59.08;23.60;;;0.10;99.90;;;;;;12502632;28;19925;-39
2021/12/03 03:04:27;;;;;;;49.47;23.63;;;0.00;99.90;;;;;;12506566;28;20058;-38
2021/12/03 03:10:35;;;;;;;40.67;20.88;;;0.00;99.90;;;;;;12495494;28;20053;-38
2021/12/03 03:16:38;;;;;;;42.78;21.35;;;-0.10;99.90;;;;;;12504911;28;20049;-37
2021/12/03 03:22:41;;;;;;;42.60;20.55;;;-0.10;99.90;;;;;;12505004;28;20056;-37
2021/12/03 03:28:45;;;;;;;55.38;24.73;;;-0.10;99.90;;;;;;12501819;28;20049;-37
2021/12/03 03:34:47;;;;;;;43.20;23.10;;;-0.10;99.90;;;;;;12505693;28;20087;-38
2021/12/03 03:40:50;;;;;;;47.75;23.52;;;-0.10;99.90;;;;;;12502915;28;20048;-37
2021/12/03 03:46:54;;;;;;;47.97;23.42;;;0.00;99.90;;;;;;12502727;28;20045;-37
2021/12/03 03:52:57;;;;;;;47.67;22.38;;;-0.10;99.90;;;;;;12497820;28;20050;-38
2021/12/03 03:58:59;;;;;;;50.65;23.55;;;0.00;99.90;;;;;;12506811;28;20057;-38
2021/12/03 04:05:01;;;;;;;57.33;24.92;;;0.00;99.90;;;;;;12499198;28;20053;-37
2021/12/03 04:11:03;;;;;;;60.53;24.50;;;0.00;99.90;;;;;;12502946;28;20073;-38
2021/12/03 04:17:05;;;;;;;51.15;23.70;;;0.00;99.90;;;;;;12495513;28;20141;-37
2021/12/03 04:23:08;;;;;;;64.15;25.58;;;0.10;99.90;;;;;;12496323;28;20056;-38
2021/12/03 04:29:10;;;;;;;62.85;25.15;;;0.20;99.90;;;;;;12504837;28;20041;-37
2021/12/03 04:35:13;;;;;;;70.15;28.23;;;0.20;99.90;;;;;;12499340;28;20052;-37
2021/12/03 04:41:15;;;;;;;74.75;29.40;;;0.30;99.90;;;;;;12499993;28;20046;-38
2021/12/03 04:47:17;;;;;;;97.43;32.72;;;0.30;99.90;;;;;;12496416;28;20069;-38
2021/12/03 04:53:19;;;;;;;103.82;33.00;;;0.40;99.90;;;;;;12497802;28;20056;-37
2021/12/03 04:59:24;;;;;;;99.72;33.90;;;0.40;99.90;;;;;;12497571;28;20075;-38
2021/12/03 05:05:30;;;;;;;105.63;35.10;;;0.40;99.90;;;;;;12492780;28;20069;-38
2021/12/03 05:11:33;;;;;;;100.45;33.80;;;0.40;99.90;;;;;;12496339;28;20063;-38
2021/12/03 05:17:37;;;;;;;;;;;0.50;99.90;;;;;;12498389;28;20619;-39
2021/12/03 05:23:39;;;;;;;93.93;33.53;;;0.50;99.90;;;;;;12498495;28;20191;-38
2021/12/03 05:29:43;;;;;;;85.95;34.33;;;0.50;99.90;;;;;;12497408;28;20048;-38
2021/12/03 05:35:46;;;;;;;86.30;33.25;;;0.50;99.90;;;;;;12501705;28;20805;-38
2021/12/03 05:41:48;;;;;;;67.80;28.75;;;0.60;99.90;;;;;;12500157;28;20037;-39
2021/12/03 05:47:51;;;;;;;83.65;31.13;;;0.60;99.90;;;;;;12497928;28;20114;-38
2021/12/03 05:53:53;;;;;;;80.60;31.70;;;0.70;99.90;;;;;;12498272;28;20517;-39
2021/12/03 05:59:55;;;;;;;83.00;30.88;;;0.70;99.90;;;;;;12498693;28;20107;-39
2021/12/03 06:05:57;;;;;;;76.72;32.17;;;0.70;99.90;;;;;;12507239;28;20509;-38
2021/12/03 06:12:01;;;;;;;85.10;30.17;;;0.70;99.90;;;;;;12501262;28;20067;-38
2021/12/03 06:18:03;;;;;;;81.63;31.87;;;0.70;99.90;;;;;;12506841;28;20060;-38
2021/12/03 06:24:05;;;;;;;72.00;29.13;;;0.70;99.90;;;;;;12500262;28;20307;-37
2021/12/03 06:30:14;;;;;;;73.30;30.83;;;0.70;99.90;;;;;;12504870;28;20096;-39
2021/12/03 06:36:16;;;;;;;78.53;31.45;;;0.80;99.90;;;;;;12503782;28;20720;-38
2021/12/03 06:42:18;;;;;;;81.22;34.08;;;0.80;99.90;;;;;;12504272;28;20050;-38
2021/12/03 06:48:20;;;;;;;86.70;33.55;;;0.80;99.90;;;;;;12505956;28;20413;-38
2021/12/03 06:54:29;;;;;;;87.05;32.45;;;0.80;99.90;;;;;;12500224;28;20451;-37
2021/12/03 07:00:31;;;;;;;87.47;33.42;;;0.90;99.90;;;;;;12498415;28;20076;-38
2021/12/03 07:06:33;;;;;;;83.03;33.63;;;0.80;99.90;;;;;;12505356;28;20052;-38
2021/12/03 07:12:38;;;;;;;80.30;34.67;;;0.90;99.90;;;;;;12499480;28;20052;-38
2021/12/03 07:18:40;;;;;;;80.03;30.95;;;0.90;99.90;;;;;;12499439;28;20632;-39
2021/12/03 07:24:42;;;;;;;90.97;32.78;;;0.90;99.90;;;;;;12499655;28;20129;-38
2021/12/03 07:30:44;;;;;;;76.68;29.50;;;1.00;99.90;;;;;;12498031;28;20102;-38
2021/12/03 07:36:46;;;;;;;69.10;28.60;;;1.00;99.90;;;;;;12502682;28;20056;-39
2021/12/03 07:42:48;;;;;;;71.38;29.02;;;1.00;99.90;;;;;;12496837;28;20656;-39
2021/12/03 07:48:51;;;;;;;72.47;28.05;;;1.00;99.90;;;;;;12499236;28;20057;-38
2021/12/03 07:54:54;;;;;;;55.03;24.40;;;1.10;99.90;;;;;;12498416;28;20053;-40
2021/12/03 08:00:57;;;;;;;54.85;24.33;;;1.10;99.90;;;;;;12499939;28;20047;-39
2021/12/03 08:07:00;;;;;;;60.92;25.77;;;1.20;99.90;;;;;;12500141;28;20198;-38
2021/12/03 08:13:06;;;;;;;55.67;25.38;;;1.20;99.90;;;;;;12498165;28;20041;-39
2021/12/03 08:19:13;;;;;;;52.35;24.65;;;1.30;99.90;;;;;;12502829;28;20057;-39
2021/12/03 08:25:19;;;;;;;49.88;22.40;;;1.30;99.90;;;;;;12503802;28;20056;-39
2021/12/03 08:31:21;;;;;;;48.70;22.63;;;1.40;99.90;;;;;;12501934;28;20049;-37
2021/12/03 08:37:24;;;;;;;42.00;21.00;;;1.40;99.90;;;;;;12494641;28;20493;-37
2021/12/03 08:43:27;;;;;;;45.83;20.40;;;1.50;99.90;;;;;;12492101;28;20044;-38
2021/12/03 08:49:37;;;;;;;36.53;19.13;;;1.50;99.90;;;;;;12500125;28;20041;-39
2021/12/03 08:55:54;;;;;;;;;;;1.60;99.90;;;;;;12496798;28;20048;-39
2021/12/03 09:01:56;;;;;;;37.58;17.75;;;1.60;99.90;;;;;;12494590;28;19968;-38
2021/12/03 09:08:00;;;;;;;38.35;18.13;;;1.70;99.90;;;;;;12497017;28;20081;-39
2021/12/03 09:14:25;;;;;;;40.92;19.27;;;1.80;99.90;;;;;;12495014;28;20042;-38
2021/12/03 09:20:39;;;;;;;36.78;18.45;;;1.80;99.90;;;;;;12498132;28;20049;-38
2021/12/03 09:26:44;;;;;;;39.03;17.33;;;1.90;99.90;;;;;;12496875;28;20106;-41
2021/12/03 09:32:52;;;;;;;37.47;19.02;;;1.90;99.90;;;;;;12499236;28;20049;-39
2021/12/03 09:38:54;;;;;;;35.70;18.10;;;1.90;99.90;;;;;;12502957;28;20047;-39
2021/12/03 09:44:56;;;;;;;48.42;20.90;;;1.90;99.90;;;;;;12505625;28;20191;-38
2021/12/03 09:51:00;;;;;;;44.97;20.27;;;2.00;99.90;;;;;;12504009;28;20106;-39
2021/12/03 09:57:09;;;;;;;50.55;21.20;;;2.00;99.90;;;;;;12505435;28;20131;-39
2021/12/03 10:47:25;;;;;;;45.23;20.97;;;2.40;99.90;;;;;;12509690;28;20199;-39
2021/12/03 10:53:41;;;;;;;41.40;20.83;;;2.40;99.90;;;;;;12503584;28;20083;-38
2021/12/03 11:12:48;;;;;;;35.20;17.55;;;2.70;99.90;;;;;;12502257;28;20053;-39
2021/12/03 11:51:08;;;;;;;24.40;10.55;;;2.90;99.90;;;;;;12504948;28;20052;-37
2021/12/03 12:36:34;;;;;;;15.85;5.43;;;3.30;99.90;;;;;;12496373;28;20045;-38
2021/12/03 13:09:08;;;;;;;18.40;4.82;;;3.30;99.90;;;;;;12505916;28;20094;-39
2021/12/03 13:15:27;;;;;;;12.05;4.03;;;3.20;99.90;;;;;;12508272;28;20116;-38
2021/12/03 14:56:35;;;;;;;17.90;6.30;;;3.10;99.90;;;;;;12506308;28;20045;-39
2021/12/03 15:09:13;;;;;;;17.35;6.55;;;3.10;99.90;;;;;;12504474;28;20049;-39
2021/12/03 15:52:05;;;;;;;10.40;3.15;;;3.00;99.90;;;;;;12503143;28;20198;-38
2021/12/03 16:06:27;;;;;;;11.50;2.70;;;2.90;99.90;;;;;;12426486;28;20055;-39
2021/12/03 16:12:51;;;;;;;7.82;2.90;;;2.90;99.90;;;;;;12495457;28;20139;-39
2021/12/03 16:19:18;;;;;;;9.68;3.50;;;2.80;99.90;;;;;;12498722;28;20098;-38
2021/12/03 16:56:27;;;;;;;9.48;2.60;;;2.80;99.90;;;;;;12501762;28;20045;-39
2021/12/03 17:02:38;;;;;;;7.13;2.77;;;2.70;99.90;;;;;;12498154;28;20056;-38
2021/12/03 17:52:48;;;;;;;11.52;4.78;;;2.40;99.90;;;;;;12499297;28;20049;-39
2021/12/03 17:58:49;;;;;;;10.68;4.13;;;2.50;99.90;;;;;;12504785;28;20247;-39
2021/12/03 18:05:24;;;;;;;7.22;3.83;;;2.50;99.90;;;;;;12506410;28;20049;-38
2021/12/03 18:18:04;;;;;;;6.90;4.40;;;2.60;99.90;;;;;;12504704;28;20041;-38
2021/12/03 18:55:45;;;;;;;9.43;6.03;;;2.50;99.90;;;;;;12502087;28;20192;-39
2021/12/03 19:01:48;;;;;;;9.18;5.95;;;2.50;99.90;;;;;;12487598;28;20041;-38
2021/12/03 19:08:15;;;;;;;10.77;5.80;;;2.50;99.90;;;;;;12498908;28;20144;-38
2021/12/03 19:14:13;;;;;;;11.75;6.10;;;2.50;99.90;;;;;;12502638;28;20057;-39
2021/12/03 19:20:21;;;;;;;9.70;6.15;;;2.50;99.90;;;;;;12501239;28;20057;-37
2021/12/03 19:26:24;;;;;;;13.23;6.63;;;2.60;99.90;;;;;;12497686;28;20168;-38
2021/12/03 19:32:29;;;;;;;9.25;6.47;;;2.60;99.90;;;;;;12496788;28;20073;-39
2021/12/03 19:38:32;;;;;;;;;;;2.60;99.90;;;;;;12497939;28;20429;-37
2021/12/03 19:51:14;;;;;;;8.33;5.73;;;2.60;99.90;;;;;;12469692;28;20049;-38
2021/12/03 19:57:16;;;;;;;9.60;6.55;;;2.70;99.90;;;;;;12499009;28;20567;-38
2021/12/03 20:03:18;;;;;;;10.30;6.85;;;2.60;99.90;;;;;;12496506;28;20057;-38
2021/12/03 20:09:24;;;;;;;9.77;6.45;;;2.70;99.90;;;;;;12498873;28;20851;-39
2021/12/03 20:15:34;;;;;;;13.23;7.00;;;2.60;99.90;;;;;;12492478;28;20559;-39
2021/12/03 20:21:43;;;;;;;8.88;6.10;;;2.60;99.90;;;;;;12499330;28;20530;-38
2021/12/03 20:40:26;;;;;;;7.95;5.18;;;2.80;99.90;;;;;;12495321;28;20105;-39
2021/12/03 20:52:54;;;;;;;7.00;4.38;;;2.90;99.90;;;;;;12496785;28;21612;-39
2021/12/03 21:11:43;;;;;;;5.53;3.88;;;3.10;99.90;;;;;;12349176;28;20112;-37
2021/12/03 21:24:05;;;;;;;5.97;4.00;;;3.10;99.90;;;;;;12498738;28;20136;-38
2021/12/03 21:30:18;;;;;;;;;;;3.20;99.90;;;;;;12491917;28;20045;-37
2021/12/03 21:42:44;;;;;;;5.57;4.00;;;3.20;99.90;;;;;;12505840;28;20050;-37
2021/12/03 21:48:46;;;;;;;4.88;3.40;;;3.20;99.90;;;;;;12507244;28;20052;-39
2021/12/03 21:54:48;;;;;;;6.57;3.72;;;3.30;99.90;;;;;;12502942;28;20049;-38
2021/12/03 22:00:49;;;;;;;5.72;3.78;;;3.30;99.90;;;;;;12500542;28;20049;-39
2021/12/03 22:06:51;;;;;;;7.70;4.60;;;3.20;99.90;;;;;;12504705;28;20057;-39
2021/12/03 22:12:53;;;;;;;7.20;4.60;;;3.10;99.90;;;;;;12514194;28;20056;-37
2021/12/03 22:18:55;;;;;;;9.48;4.80;;;3.00;99.90;;;;;;12495710;28;20171;-38
2021/12/03 22:24:57;;;;;;;7.40;5.25;;;3.00;99.90;;;;;;12499157;28;20048;-38
2021/12/03 22:30:59;;;;;;;12.15;5.60;;;2.90;99.90;;;;;;12499561;28;20461;-38
2021/12/03 22:37:03;;;;;;;7.13;5.45;;;2.90;99.90;;;;;;12499146;28;21025;-38
2021/12/03 22:43:10;;;;;;;8.27;6.28;;;2.90;99.90;;;;;;12503255;28;20608;-38
2021/12/03 22:55:15;;;;;;;9.15;6.38;;;2.90;99.90;;;;;;12497144;28;20136;-38
2021/12/03 23:01:20;;;;;;;10.43;6.60;;;2.90;99.90;;;;;;12498527;28;20069;-37
2021/12/03 23:07:23;;;;;;;11.63;6.85;;;2.80;99.90;;;;;;12495551;28;20320;-39
2021/12/03 23:13:28;;;;;;;9.90;7.03;;;2.80;99.90;;;;;;12494378;28;20148;-39
2021/12/03 23:19:30;;;;;;;11.93;7.07;;;2.80;99.90;;;;;;12499666;28;20126;-39
2021/12/03 23:25:32;;;;;;;10.18;6.60;;;2.80;99.90;;;;;;12501918;28;20056;-38
2021/12/03 23:31:38;;;;;;;9.75;7.68;;;2.80;99.90;;;;;;12495211;28;20131;-38
2021/12/03 23:37:40;;;;;;;10.32;7.18;;;2.80;99.90;;;;;;12496835;28;20057;-38
2021/12/03 23:43:42;;;;;;;10.77;7.70;;;2.80;99.90;;;;;;12493238;28;20136;-38
2021/12/03 23:49:44;;;;;;;11.82;7.20;;;2.80;99.90;;;;;;12495063;28;20094;-38
2021/12/03 23:55:46;;;;;;;13.63;7.68;;;2.80;99.90;;;;;;12499674;28;20044;-38
